Terminal Aerodrome Forecast
Issued by NWS

Home | Current Version | Previous Version | Text Only | Print | Product List | Glossary Off
Versions: 1 2 3 4 5 6 7 8 9 10 11 12 13 14 15 16 17 18

835
FTUS44 KLZK 261730
TAFLIT
TAF
KLIT 261730Z 2618/2718 14004KT P6SM SCT040 BKN250
      TEMPO 2619/2622 BKN040
     FM270030 10003KT P6SM SCT100
     FM270600 VRB02KT P6SM SCT250
     FM271100 00000KT 4SM BR BKN250
     FM271500 12003KT P6SM SCT250=

USA.gov is the U.S. government's official web portal to all federal, state and local government web resources and services.